Time;durP1;ratioP1;P1;durP2;ratioP2;P2;SDS_P1;SDS_P2;PMS_P1;PMS_P2;Temp;Humidity;BMP_temperature;BMP_pressure;BME280_temperature;BME280_humidity;BME280_pressure;Samples;Min_cycle;Max_cycle;Signal;HPM_P1;HPM_P2
2021/11/19 00:02:22;;;;;;;5.00;4.33;;;;;;;17.91;67.46;101205.94;4934350;28;20258;-72
2021/11/19 00:04:47;;;;;;;5.00;4.50;;;;;;;18.21;66.77;101203.53;4917788;28;20211;-73
2021/11/19 00:07:13;;;;;;;6.80;4.90;;;;;;;18.84;65.30;101203.91;4933759;28;20196;-72
2021/11/19 00:09:39;;;;;;;6.53;4.23;;;;;;;18.38;66.47;101205.75;4949945;28;20254;-72
2021/11/19 00:12:05;;;;;;;5.33;4.83;;;;;;;18.80;64.57;101184.38;4917932;28;20183;-72
2021/11/19 00:14:30;;;;;;;6.97;4.60;;;;;;;18.70;65.56;101200.50;4949222;28;20195;-70
2021/11/19 00:17:00;;;;;;;4.63;4.23;;;;;;;18.11;68.01;101191.72;4917422;28;20222;-73
2021/11/19 00:19:26;;;;;;;5.53;4.93;;;;;;;18.41;66.69;101200.09;4949141;29;20190;-71
2021/11/19 00:21:52;;;;;;;7.60;5.43;;;;;;;18.48;66.31;101199.59;4949276;28;20187;-72
2021/11/19 00:24:19;;;;;;;5.30;4.80;;;;;;;18.36;66.87;101214.94;4933376;28;20207;-72
2021/11/19 00:26:44;;;;;;;7.77;6.23;;;;;;;18.22;67.17;101207.97;4917437;29;20353;-72
2021/11/19 00:29:12;;;;;;;7.33;6.20;;;;;;;18.25;67.64;101194.19;4933314;29;20210;-73
2021/11/19 00:31:38;;;;;;;6.67;5.97;;;;;;;18.87;65.75;101179.31;4933058;28;20258;-71
2021/11/19 00:34:03;;;;;;;7.07;5.10;;;;;;;18.29;67.32;101192.97;4949040;28;20194;-72
2021/11/19 00:36:30;;;;;;;9.77;6.47;;;;;;;19.08;65.08;101196.47;4933509;28;20218;-72
2021/11/19 00:38:58;;;;;;;7.57;5.63;;;;;;;18.59;66.91;101196.91;4932900;28;20214;-72
2021/11/19 00:41:24;;;;;;;7.33;5.67;;;;;;;18.54;66.75;101199.97;4933092;29;20199;-71
2021/11/19 00:43:49;;;;;;;9.77;6.27;;;;;;;18.49;66.18;101202.16;4948737;28;20199;-71
2021/11/19 00:46:15;;;;;;;6.83;6.13;;;;;;;18.87;65.69;101201.81;4934561;28;20573;-72
2021/11/19 00:48:41;;;;;;;7.53;6.83;;;;;;;19.28;65.52;101211.91;4949034;28;20194;-72
2021/11/19 00:51:11;;;;;;;7.27;6.00;;;;;;;18.39;67.00;101195.78;4917113;28;20564;-72
2021/11/19 00:53:39;;;;;;;8.33;7.10;;;;;;;19.15;66.30;101211.22;4932836;29;20183;-73
2021/11/19 00:56:04;;;;;;;7.67;6.87;;;;;;;18.89;66.08;101202.53;4932549;29;20290;-72
2021/11/19 00:58:30;;;;;;;7.43;6.63;;;;;;;18.50;67.06;101219.25;4932709;28;20306;-74
2021/11/19 01:01:00;;;;;;;8.00;5.50;;;;;;;18.49;67.43;101183.25;4917089;28;20218;-72
2021/11/19 01:03:26;;;;;;;6.57;5.53;;;;;;;18.09;67.80;101220.69;4932585;29;20654;-72
2021/11/19 01:05:52;;;;;;;6.70;5.63;;;;;;;18.32;67.80;101224.28;4932464;28;20199;-72
2021/11/19 01:08:18;;;;;;;7.17;5.43;;;;;;;18.75;66.13;101205.50;4915620;29;20176;-72
2021/11/19 01:10:44;;;;;;;7.43;5.70;;;;;;;18.44;66.96;101201.69;4948635;28;20203;-72
2021/11/19 01:13:09;;;;;;;5.93;5.13;;;;;;;18.51;67.36;101211.00;4932590;28;20191;-72
2021/11/19 01:15:41;;;;;;;5.60;5.00;;;;;;;18.92;66.79;101199.56;4916441;29;20223;-72
2021/11/19 01:18:18;;;;;;;4.70;4.20;;;;;;;18.75;67.00;101224.44;4948420;28;20183;-72
2021/11/19 01:20:59;;;;;;;5.53;4.97;;;;;;;18.97;66.18;101226.28;4932947;29;20172;-72
2021/11/19 01:23:27;;;;;;;8.97;5.03;;;;;;;18.73;66.14;101213.75;4932277;29;20294;-72
2021/11/19 01:25:57;;;;;;;5.57;5.07;;;;;;;19.38;65.22;101222.00;4948927;28;20276;-72
2021/11/19 01:28:23;;;;;;;4.80;4.30;;;;;;;19.01;66.21;101215.06;4948299;28;20187;-72
2021/11/19 01:30:52;;;;;;;5.37;4.63;;;;;;;18.70;67.00;101253.69;4932895;29;20191;-72
2021/11/19 01:33:18;;;;;;;4.90;4.40;;;;;;;18.18;67.67;101222.66;4932263;29;20180;-72
2021/11/19 01:35:43;;;;;;;6.27;4.40;;;;;;;18.96;65.63;101221.84;4932356;28;20192;-72
2021/11/19 01:38:09;;;;;;;4.53;4.13;;;;;;;19.25;64.75;101205.88;4916459;29;20183;-72
2021/11/19 01:40:39;;;;;;;5.60;4.20;;;;;;;18.93;66.30;101214.81;4932241;28;20271;-73
2021/11/19 01:43:08;;;;;;;4.23;3.60;;;;;;;18.62;67.53;101226.44;4932221;29;20187;-72
2021/11/19 01:45:40;;;;;;;5.40;3.60;;;;;;;19.11;66.22;101220.56;4932636;28;20282;-72
2021/11/19 01:48:08;;;;;;;3.73;3.23;;;;;;;19.51;65.54;101196.44;4932248;29;20642;-72
2021/11/19 01:50:48;;;;;;;3.33;3.03;;;;;;;19.22;66.25;101206.16;4932507;28;20257;-73
2021/11/19 01:53:30;;;;;;;4.23;3.20;;;;;;;18.93;66.39;101195.88;4932671;29;20293;-72
2021/11/19 01:56:03;;;;;;;3.20;2.93;;;;;;;18.72;66.78;101203.06;4932366;28;20261;-71
2021/11/19 01:58:33;;;;;;;3.07;2.50;;;;;;;18.96;66.69;101206.47;4917225;29;20184;-72
2021/11/19 02:01:04;;;;;;;3.30;3.00;;;;;;;19.17;66.19;101209.25;4932541;29;20176;-72
2021/11/19 02:03:32;;;;;;;6.60;3.00;;;;;;;19.43;65.24;101198.97;4931923;29;20218;-73
2021/11/19 02:06:06;;;;;;;2.83;2.53;;;;;;;19.78;64.29;101197.84;4933180;28;20222;-72
2021/11/19 02:08:37;;;;;;;5.50;3.00;;;;;;;19.21;66.60;101204.44;4931838;29;20709;-72
2021/11/19 02:11:02;;;;;;;3.30;2.83;;;;;;;19.14;65.83;101211.34;4932069;29;20179;-73
2021/11/19 02:13:39;;;;;;;3.83;3.17;;;;;;;19.62;65.45;101226.22;4947570;28;20180;-72
2021/11/19 02:16:12;;;;;;;3.80;2.67;;;;;;;18.74;67.53;101244.34;4954695;22;20233;-75
2021/11/19 02:18:59;;;;;;;3.03;2.73;;;;;;;20.43;63.81;101215.66;4971310;28;20211;-76
2021/11/19 02:21:29;;;;;;;2.43;2.23;;;;;;;19.05;66.10;101246.28;4973371;28;20652;-75
2021/11/19 02:24:04;;;;;;;2.80;2.60;;;;;;;19.93;64.40;101216.31;4973621;28;20202;-75
2021/11/19 02:26:34;;;;;;;3.17;2.60;;;;;;;19.35;64.37;101217.69;4954122;28;20198;-75
2021/11/19 02:29:00;;;;;;;3.43;2.77;;;;;;;18.96;66.56;101198.38;4954046;29;20190;-75
2021/11/19 02:31:32;;;;;;;3.47;3.17;;;;;;;19.33;66.16;101204.28;4937829;28;20185;-75
2021/11/19 02:34:00;;;;;;;3.83;2.87;;;;;;;19.89;64.84;101212.16;4953944;29;20178;-76
2021/11/19 02:37:10;;;;;;;4.53;3.37;;;;;;;19.97;64.28;101214.22;4955281;28;20199;-76
2021/11/19 02:39:46;;;;;;;3.47;2.77;;;;;;;20.17;63.67;101226.06;4968304;28;20188;-75
2021/11/19 02:42:22;;;;;;;5.90;2.80;;;;;;;20.51;62.80;101202.28;4953866;28;20625;-77
2021/11/19 02:44:49;;;;;;;3.53;2.80;;;;;;;20.14;63.71;101201.94;4953784;29;20210;-76
2021/11/19 02:47:18;;;;;;;5.40;3.20;;;;;;;19.61;64.80;101213.66;4953955;28;20320;-77
2021/11/19 02:49:44;;;;;;;3.37;3.00;;;;;;;19.89;64.67;101211.31;4954759;28;20594;-75
2021/11/19 02:52:23;;;;;;;5.87;3.57;;;;;;;20.08;64.41;101205.19;4954070;29;20274;-76
2021/11/19 02:54:49;;;;;;;3.83;3.43;;;;;;;20.73;62.42;101193.94;4953746;29;20160;-76
2021/11/19 02:57:15;;;;;;;3.87;3.57;;;;;;;19.49;65.27;101198.44;4953293;28;20210;-75
2021/11/19 02:59:40;;;;;;;3.47;3.17;;;;;;;20.37;63.05;101199.91;4953350;29;20171;-75
2021/11/19 03:02:11;;;;;;;3.90;3.50;;;;;;;20.53;62.82;101200.31;4953421;29;20190;-75
2021/11/19 03:04:40;;;;;;;4.40;3.40;;;;;;;20.08;64.31;101200.63;4954516;28;20195;-75
2021/11/19 03:07:06;;;;;;;4.77;3.40;;;;;;;19.94;64.61;101201.78;4969479;28;20576;-74
2021/11/19 03:09:39;;;;;;;3.50;3.10;;;;;;;21.03;61.59;101187.59;4955046;28;20179;-75
2021/11/19 03:12:07;;;;;;;4.33;3.63;;;;;;;20.15;62.79;101190.94;4937385;28;20621;-75
2021/11/19 03:14:33;;;;;;;6.40;3.80;;;;;;;19.68;64.80;101203.16;4952994;29;20181;-74
2021/11/19 03:16:59;;;;;;;5.50;3.23;;;;;;;20.22;63.59;101189.41;4954435;28;20214;-74
2021/11/19 03:19:25;;;;;;;4.57;3.20;;;;;;;20.19;63.63;101188.84;4953553;29;20236;-74
2021/11/19 03:21:50;;;;;;;8.50;3.73;;;;;;;20.17;64.00;101210.66;4954438;28;20183;-74
2021/11/19 03:24:17;;;;;;;5.40;3.30;;;;;;;19.57;65.22;101206.78;4952996;28;20203;-74
2021/11/19 03:26:42;;;;;;;4.33;3.50;;;;;;;19.67;65.73;101209.56;4953255;28;20206;-75
2021/11/19 03:29:09;;;;;;;4.67;3.07;;;;;;;19.51;65.78;101206.44;4953627;29;20245;-75
2021/11/19 03:31:36;;;;;;;6.63;3.60;;;;;;;19.33;66.28;101209.69;4952332;29;20186;-75
2021/11/19 03:34:01;;;;;;;5.73;3.50;;;;;;;19.78;64.88;101192.44;4952982;29;20498;-75
2021/11/19 03:36:27;;;;;;;8.47;3.67;;;;;;;19.17;66.41;101190.31;4953072;28;20206;-74
2021/11/19 03:38:57;;;;;;;4.83;4.07;;;;;;;19.44;66.68;101186.28;4952964;29;20601;-74
2021/11/19 03:41:26;;;;;;;7.17;4.00;;;;;;;20.13;64.60;101200.22;4952802;29;20186;-75
2021/11/19 03:44:03;;;;;;;6.83;3.70;;;;;;;19.66;65.58;101197.03;4936576;29;20209;-75
2021/11/19 03:46:33;;;;;;;7.27;4.03;;;;;;;20.32;64.51;101192.16;4953894;28;20699;-75
2021/11/19 03:48:58;;;;;;;4.93;3.93;;;;;;;20.02;64.40;101182.16;4952804;29;20179;-75
2021/11/19 03:51:29;;;;;;;5.33;3.80;;;;;;;20.19;63.88;101196.97;4936579;29;20265;-73
2021/11/19 03:53:54;;;;;;;5.63;4.40;;;;;;;19.76;64.89;101208.81;4952465;29;20246;-73
2021/11/19 03:56:20;;;;;;;10.37;4.30;;;;;;;19.87;64.95;101187.06;4953716;28;20290;-73
2021/11/19 03:58:46;;;;;;;7.23;4.13;;;;;;;20.22;63.74;101192.13;4952545;29;20179;-75
2021/11/19 04:01:22;;;;;;;12.00;4.10;;;;;;;20.74;63.61;101195.66;4936437;28;20236;-74
2021/11/19 04:03:48;;;;;;;6.53;4.10;;;;;;;20.34;63.57;101208.28;4952338;28;20203;-74
2021/11/19 04:06:14;;;;;;;7.83;3.90;;;;;;;20.33;63.69;101203.88;4953760;28;20249;-74
2021/11/19 04:08:40;;;;;;;8.47;4.10;;;;;;;20.10;63.95;101222.16;4952610;28;20183;-75
2021/11/19 04:11:06;;;;;;;6.93;4.13;;;;;;;20.51;62.89;101222.13;4953316;28;20633;-74
2021/11/19 04:13:32;;;;;;;13.27;4.00;;;;;;;20.65;63.19;101218.19;4952428;29;20183;-75
2021/11/19 04:16:03;;;;;;;9.30;4.70;;;;;;;20.35;64.16;101218.16;4952534;28;20206;-75
2021/11/19 04:18:29;;;;;;;12.43;4.30;;;;;;;20.17;64.07;101207.94;4952347;28;20353;-75
2021/11/19 04:20:55;;;;;;;13.43;3.83;;;;;;;20.66;62.93;101211.75;4952463;29;20274;-74
2021/11/19 04:23:22;;;;;;;10.93;3.50;;;;;;;20.07;63.93;101212.44;4952466;29;20258;-74
2021/11/19 04:25:47;;;;;;;19.90;4.00;;;;;;;20.34;63.90;101211.00;4952266;28;20191;-75
2021/11/19 04:28:13;;;;;;;12.73;4.13;;;;;;;19.96;64.33;101212.50;4954645;29;20183;-75
2021/11/19 04:30:43;;;;;;;8.07;3.50;;;;;;;20.02;65.32;101219.22;4952623;29;20182;-75
2021/11/19 04:33:09;;;;;;;13.03;3.90;;;;;;;20.34;63.46;101203.72;4953583;29;20171;-75
2021/11/19 04:35:34;;;;;;;13.43;3.50;;;;;;;20.35;63.95;101229.84;4954383;28;20186;-76
2021/11/19 04:38:00;;;;;;;11.83;3.50;;;;;;;20.24;63.60;101236.22;4953279;29;20261;-75
2021/11/19 04:40:26;;;;;;;10.37;3.57;;;;;;;20.50;63.39;101224.97;4953991;28;20206;-75
2021/11/19 04:42:51;;;;;;;9.57;3.43;;;;;;;20.73;63.18;101221.06;4968878;28;20621;-76
2021/11/19 04:45:24;;;;;;;7.07;3.30;;;;;;;21.01;62.84;101224.00;4952202;29;20207;-75
2021/11/19 04:47:50;;;;;;;9.00;3.50;;;;;;;20.26;64.52;101226.09;4952975;28;20249;-76
2021/11/19 04:50:17;;;;;;;14.13;4.20;;;;;;;20.65;63.39;101226.31;4951864;29;20179;-75
2021/11/19 04:52:43;;;;;;;12.77;3.53;;;;;;;20.21;63.92;101212.09;4952391;29;20175;-76
2021/11/19 04:55:11;;;;;;;14.10;3.73;;;;;;;20.27;64.13;101218.81;4952373;28;20179;-76
2021/11/19 04:57:37;;;;;;;8.13;3.77;;;;;;;20.35;63.82;101212.72;4952596;28;20265;-76
2021/11/19 05:00:07;;;;;;;15.93;4.07;;;;;;;20.25;64.11;101220.81;4953101;29;20592;-74
2021/11/19 05:02:32;;;;;;;12.57;3.93;;;;;;;20.12;64.12;101223.75;4952319;28;20175;-75
2021/11/19 05:04:57;;;;;;;9.93;4.10;;;;;;;20.29;63.35;101208.72;4953226;28;20285;-75
2021/11/19 05:07:23;;;;;;;11.53;4.90;;;;;;;20.36;63.87;101219.84;4952902;28;20198;-74
2021/11/19 05:09:48;;;;;;;9.97;4.07;;;;;;;20.13;64.33;101228.16;4953272;28;20183;-72
2021/11/19 05:12:18;;;;;;;11.27;3.93;;;;;;;20.70;63.21;101202.34;4951786;29;20190;-76
2021/11/19 05:14:44;;;;;;;11.30;4.40;;;;;;;20.53;63.63;101216.56;4952148;29;20179;-76
2021/11/19 05:17:10;;;;;;;15.23;4.83;;;;;;;20.17;64.47;101207.06;4951248;28;20218;-77
2021/11/19 05:19:36;;;;;;;15.47;4.63;;;;;;;20.21;63.88;101198.53;4952419;29;20183;-78
2021/11/19 05:22:02;;;;;;;10.53;4.17;;;;;;;20.23;63.87;101184.84;4954270;29;20171;-77
2021/11/19 05:24:28;;;;;;;10.77;4.30;;;;;;;19.87;65.39;101202.47;4955655;29;20302;-79
2021/11/19 05:26:54;;;;;;;12.63;3.93;;;;;;;20.38;63.90;101210.59;4956304;28;20564;-77
2021/11/19 05:29:19;;;;;;;11.30;4.30;;;;;;;19.83;65.22;101201.00;4953977;29;20179;-77
2021/11/19 05:31:45;;;;;;;14.43;4.00;;;;;;;19.86;64.80;101201.59;4953296;28;20211;-77
2021/11/19 05:34:13;;;;;;;8.27;3.97;;;;;;;19.70;65.38;101219.28;4951868;29;20260;-77
2021/11/19 05:36:39;;;;;;;10.10;4.60;;;;;;;19.86;65.06;101203.44;4952774;28;20735;-76
2021/11/19 05:39:04;;;;;;;10.57;4.43;;;;;;;20.08;63.48;101184.34;4951447;28;20718;-76
2021/11/19 05:41:30;;;;;;;11.17;4.53;;;;;;;19.61;64.69;101189.28;4951655;29;20183;-79
2021/11/19 05:43:56;;;;;;;11.63;3.83;;;;;;;20.48;63.49;101187.16;4951707;29;20248;-77
2021/11/19 05:46:23;;;;;;;8.63;4.07;;;;;;;20.01;64.82;101187.72;4951293;28;20687;-77
2021/11/19 05:48:50;;;;;;;14.83;4.70;;;;;;;19.65;65.65;101212.41;4952776;28;20202;-75
2021/11/19 05:51:17;;;;;;;9.57;4.17;;;;;;;20.02;64.78;101184.88;4951010;28;20189;-76
2021/11/19 05:53:43;;;;;;;8.63;4.13;;;;;;;19.93;64.28;101191.09;4952740;28;20168;-74
2021/11/19 05:56:09;;;;;;;9.60;4.30;;;;;;;20.36;64.28;101190.03;4954555;28;20199;-77
2021/11/19 05:58:36;;;;;;;11.90;4.30;;;;;;;19.73;64.78;101191.97;4956285;29;20201;-78
2021/11/19 06:01:05;;;;;;;4.53;3.50;;;;;;;20.20;63.93;101195.97;4958764;28;20258;-78
2021/11/19 06:03:32;;;;;;;8.90;4.30;;;;;;;19.77;64.83;101169.03;4955886;28;20687;-69
2021/11/19 06:05:57;;;;;;;5.73;3.70;;;;;;;19.68;64.43;101195.91;4955363;28;20678;-71
2021/11/19 06:08:22;;;;;;;12.47;3.97;;;;;;;19.73;64.85;101189.25;4955177;28;20240;-72
2021/11/19 06:10:51;;;;;;;8.73;3.90;;;;;;;19.97;64.51;101190.69;4953805;29;20179;-73
2021/11/19 06:13:22;;;;;;;8.07;3.70;;;;;;;20.51;63.10;101191.44;4969844;28;20198;-72
2021/11/19 06:15:52;;;;;;;6.63;3.03;;;;;;;19.74;64.29;101199.97;4953847;28;20163;-75
2021/11/19 06:18:23;;;;;;;7.70;3.70;;;;;;;20.44;62.84;101182.13;4953834;29;20195;-76
2021/11/19 06:20:51;;;;;;;8.53;3.33;;;;;;;19.74;63.39;101194.53;4938452;28;20167;-71
2021/11/19 06:23:20;;;;;;;8.60;3.57;;;;;;;20.43;62.43;101189.38;4953500;29;20171;-72
2021/11/19 06:25:46;;;;;;;6.13;2.93;;;;;;;20.28;62.14;101207.84;4953656;28;20176;-73
2021/11/19 06:28:20;;;;;;;8.53;2.93;;;;;;;20.29;62.52;101204.13;4955963;28;20184;-80
2021/11/19 06:30:46;;;;;;;10.97;3.10;;;;;;;19.88;63.03;101221.28;4954885;29;20547;-77
2021/11/19 06:33:12;;;;;;;9.07;2.93;;;;;;;20.43;61.54;101216.50;4954603;29;20536;-76
2021/11/19 06:35:38;;;;;;;7.73;3.10;;;;;;;20.17;62.49;101207.06;4954187;28;20189;-74
2021/11/19 06:38:03;;;;;;;7.97;2.97;;;;;;;20.35;61.71;101212.72;4953783;29;20175;-73
2021/11/19 06:40:31;;;;;;;6.70;3.17;;;;;;;20.22;62.00;101232.78;4953460;29;20207;-72
2021/11/19 06:42:57;;;;;;;6.97;2.70;;;;;;;19.81;63.08;101222.81;4953323;29;20176;-71
2021/11/19 06:45:24;;;;;;;7.50;2.73;;;;;;;20.52;61.30;101237.41;4937447;28;20225;-72
2021/11/19 06:47:49;;;;;;;7.77;2.83;;;;;;;19.96;62.87;101263.97;4953154;28;20210;-71
2021/11/19 06:50:17;;;;;;;8.30;2.47;;;;;;;20.16;61.97;101230.59;4954032;29;20206;-72
2021/11/19 06:52:42;;;;;;;7.23;2.97;;;;;;;20.01;62.96;101241.91;4953604;29;20175;-71
2021/11/19 06:55:09;;;;;;;10.70;2.80;;;;;;;21.05;60.53;101231.72;4953687;29;20222;-73
2021/11/19 06:57:34;;;;;;;9.07;3.13;;;;;;;20.47;61.42;101223.41;4953050;28;20202;-72
2021/11/19 07:00:00;;;;;;;8.80;2.90;;;;;;;20.18;61.93;101234.03;4953155;29;20248;-71
2021/11/19 07:02:26;;;;;;;6.73;2.60;;;;;;;19.44;63.66;101246.69;4953307;29;20262;-73
2021/11/19 07:04:51;;;;;;;8.63;3.20;;;;;;;20.07;62.87;101236.84;4954518;28;20557;-72
2021/11/19 07:07:16;;;;;;;6.67;3.00;;;;;;;20.42;61.37;101231.06;4954239;28;20206;-72
2021/11/19 07:09:42;;;;;;;8.63;2.80;;;;;;;19.73;63.20;101224.47;4969135;28;20198;-72
2021/11/19 07:12:11;;;;;;;10.07;3.73;;;;;;;20.32;62.13;101249.09;4954355;28;20182;-73
2021/11/19 07:14:38;;;;;;;8.63;3.07;;;;;;;19.67;63.54;101259.16;4953291;29;20548;-73
2021/11/19 07:17:04;;;;;;;3.63;2.50;;;;;;;19.56;63.87;101252.94;4954228;28;20214;-73
2021/11/19 07:19:30;;;;;;;6.77;3.10;;;;;;;19.89;63.23;101251.94;4953090;29;20203;-72
2021/11/19 07:21:56;;;;;;;5.00;2.60;;;;;;;19.64;63.61;101275.66;4954214;28;20313;-72
2021/11/19 07:24:22;;;;;;;7.40;3.17;;;;;;;20.49;61.81;101258.50;4952740;29;20202;-72
2021/11/19 07:26:47;;;;;;;8.07;3.63;;;;;;;20.13;62.50;101266.09;4936748;28;20198;-72
2021/11/19 07:29:12;;;;;;;6.27;3.67;;;;;;;19.94;62.77;101307.44;4954101;29;20175;-72
2021/11/19 07:31:38;;;;;;;8.23;3.20;;;;;;;19.77;63.68;101253.00;4953931;29;20225;-72
2021/11/19 07:34:04;;;;;;;7.00;3.30;;;;;;;20.35;62.26;101291.34;4952453;28;20268;-72
2021/11/19 07:36:29;;;;;;;10.03;3.57;;;;;;;20.37;61.78;101264.94;4952588;28;20199;-72
2021/11/19 07:38:56;;;;;;;6.77;3.07;;;;;;;20.15;62.67;101288.50;4952519;29;20181;-71
2021/11/19 07:41:22;;;;;;;9.60;2.63;;;;;;;20.05;62.74;101287.56;4953723;28;20171;-71
2021/11/19 07:43:47;;;;;;;9.73;2.80;;;;;;;19.47;63.87;101251.84;4952409;29;20218;-71
2021/11/19 07:46:15;;;;;;;4.80;2.50;;;;;;;20.01;63.09;101267.13;4953932;28;20203;-72
2021/11/19 07:48:42;;;;;;;5.70;2.57;;;;;;;20.07;62.91;101269.34;4952378;29;20218;-72
2021/11/19 07:51:14;;;;;;;6.77;3.00;;;;;;;20.00;63.27;101289.81;4953718;28;20545;-73
2021/11/19 07:53:40;;;;;;;17.43;3.67;;;;;;;20.90;61.53;101258.41;4953571;28;20178;-73
2021/11/19 07:56:06;;;;;;;5.07;2.47;;;;;;;20.40;61.97;101252.00;4952177;28;20195;-73
2021/11/19 07:58:32;;;;;;;6.53;3.07;;;;;;;20.21;61.97;101274.44;4968724;28;20183;-72
2021/11/19 08:00:58;;;;;;;5.97;2.63;;;;;;;20.29;61.92;101282.75;4953780;28;20171;-72
2021/11/19 08:03:24;;;;;;;10.63;3.33;;;;;;;20.39;61.57;101258.41;4952202;29;20167;-72
2021/11/19 08:05:52;;;;;;;9.57;3.10;;;;;;;20.04;62.89;101255.19;4952222;28;20176;-72
2021/11/19 08:08:19;;;;;;;5.97;3.07;;;;;;;20.23;61.98;101261.59;4953596;28;20171;-72
2021/11/19 08:10:45;;;;;;;5.33;2.53;;;;;;;19.99;62.67;101261.00;4956737;29;20678;-72
2021/11/19 08:13:11;;;;;;;5.13;2.33;;;;;;;20.11;62.40;101254.53;4953528;28;20265;-71
2021/11/19 08:15:37;;;;;;;5.10;2.67;;;;;;;19.98;62.64;101268.25;4953058;28;20255;-72
2021/11/19 08:18:04;;;;;;;5.33;2.70;;;;;;;20.63;61.68;101260.00;5011116;23;20652;-74
2021/11/19 08:20:37;;;;;;;7.10;2.70;;;;;;;20.86;61.15;101267.81;4978081;28;20278;-73
2021/11/19 08:23:18;;;;;;;6.73;2.60;;;;;;;20.35;62.29;101273.22;4979023;28;20528;-73
2021/11/19 08:25:44;;;;;;;7.20;2.37;;;;;;;19.62;63.68;101258.69;5000624;28;20710;-73
2021/11/19 08:28:10;;;;;;;8.87;2.87;;;;;;;19.65;63.93;101266.56;5000462;28;20193;-74
2021/11/19 08:30:39;;;;;;;8.10;2.60;;;;;;;20.43;62.19;101269.88;5001059;28;20204;-74
2021/11/19 08:33:06;;;;;;;5.03;1.97;;;;;;;20.24;62.51;101271.44;4998475;28;20208;-73
2021/11/19 08:35:34;;;;;;;9.20;2.60;;;;;;;20.54;61.81;101254.41;5000983;28;20212;-73
2021/11/19 08:38:00;;;;;;;10.57;2.50;;;;;;;19.79;63.24;101265.41;5001627;28;20292;-73
2021/11/19 08:40:26;;;;;;;11.13;2.70;;;;;;;20.07;62.28;101239.53;5001193;28;20181;-73
2021/11/19 08:42:52;;;;;;;6.90;2.57;;;;;;;20.39;61.86;101292.78;5001417;28;20177;-73
2021/11/19 08:45:21;;;;;;;8.83;3.03;;;;;;;20.06;63.14;101269.44;4999411;28;20205;-74
2021/11/19 08:47:48;;;;;;;4.60;2.37;;;;;;;20.26;62.45;101263.19;4981970;28;20641;-73
2021/11/19 08:50:15;;;;;;;8.23;2.47;;;;;;;20.18;62.78;101303.66;4998676;28;20178;-72
2021/11/19 08:52:40;;;;;;;8.00;2.70;;;;;;;20.13;62.24;101271.53;5000781;28;20188;-73
2021/11/19 08:55:08;;;;;;;8.93;2.97;;;;;;;20.02;62.98;101328.47;5001102;28;20229;-74
2021/11/19 08:57:34;;;;;;;12.27;2.93;;;;;;;20.30;61.62;101292.59;5000924;28;20284;-73
2021/11/19 09:00:00;;;;;;;9.07;3.07;;;;;;;20.69;61.44;101278.44;4999288;28;20185;-73
2021/11/19 09:02:26;;;;;;;5.60;2.17;;;;;;;19.89;62.64;101319.66;4998441;28;20531;-74
2021/11/19 09:04:51;;;;;;;9.80;2.90;;;;;;;20.24;62.15;101285.00;4992553;28;20206;-74
2021/11/19 09:07:17;;;;;;;7.70;2.70;;;;;;;20.20;61.41;101270.00;4974039;28;20197;-73
2021/11/19 09:09:44;;;;;;;8.13;3.13;;;;;;;20.13;62.31;101322.16;4996866;28;20178;-74
2021/11/19 09:12:10;;;;;;;8.80;2.83;;;;;;;20.30;62.16;101306.16;4998798;28;20608;-74
2021/11/19 09:14:35;;;;;;;9.47;2.97;;;;;;;20.03;62.48;101299.50;4999569;28;20181;-74
2021/11/19 09:17:11;;;;;;;11.57;3.40;;;;;;;20.31;62.46;101290.75;4991531;28;20217;-73
2021/11/19 09:19:53;;;;;;;12.80;3.20;;;;;;;20.43;61.82;101313.25;4974204;28;20181;-74
2021/11/19 09:22:33;;;;;;;11.77;3.40;;;;;;;20.43;61.53;101313.25;4990615;28;20173;-74
2021/11/19 09:25:07;;;;;;;12.53;3.23;;;;;;;20.47;61.86;101314.72;4973748;28;20570;-72
2021/11/19 09:27:34;;;;;;;9.03;2.93;;;;;;;20.12;62.19;101326.72;4973174;28;20209;-73
2021/11/19 09:30:22;;;;;;;12.03;3.80;;;;;;;21.04;60.72;101314.13;4992467;28;20185;-74
2021/11/19 09:32:50;;;;;;;17.40;2.90;;;;;;;20.32;62.48;101307.88;4974693;28;20186;-73
2021/11/19 09:35:18;;;;;;;9.90;3.13;;;;;;;21.25;59.95;101311.41;4974216;28;20178;-70
2021/11/19 09:37:45;;;;;;;10.93;2.83;;;;;;;20.81;60.17;101337.00;4982231;28;20201;-75
2021/11/19 09:40:12;;;;;;;13.47;2.90;;;;;;;20.44;61.05;101301.41;5001990;28;20177;-74
2021/11/19 09:42:55;;;;;;;9.00;2.90;;;;;;;20.90;60.46;101337.09;4999697;28;20180;-75
2021/11/19 09:45:32;;;;;;;9.37;2.67;;;;;;;21.18;60.02;101297.47;4999315;28;20194;-74
2021/11/19 09:48:35;;;;;;;8.30;2.90;;;;;;;21.34;59.89;101310.56;4999452;28;20254;-74
2021/11/19 09:51:33;;;;;;;10.07;3.10;;;;;;;21.09;60.34;101314.59;4992299;28;20231;-74
2021/11/19 09:54:47;;;;;;;7.30;2.67;;;;;;;20.68;61.20;101307.41;4976007;28;20166;-73
2021/11/19 09:57:38;;;;;;;8.90;3.13;;;;;;;20.73;61.31;101304.28;5022277;28;20270;-74
2021/11/19 10:00:17;;;;;;;11.20;3.20;;;;;;;20.54;61.89;101318.63;4991696;28;20201;-74
2021/11/19 10:02:57;;;;;;;26.43;4.10;;;;;;;20.97;61.16;101301.25;4990413;28;20261;-74
2021/11/19 10:05:28;;;;;;;12.90;2.67;;;;;;;21.11;60.58;101328.00;4990414;28;20273;-74
2021/11/19 10:07:53;;;;;;;7.53;2.77;;;;;;;20.07;62.63;101326.25;4990074;28;20193;-74
2021/11/19 10:10:55;;;;;;;9.70;3.03;;;;;;;21.17;60.30;101309.31;4991756;28;20731;-72
2021/11/19 10:13:57;;;;;;;11.77;3.10;;;;;;;20.71;61.01;101284.56;4990282;28;20157;-73
2021/11/19 10:16:49;;;;;;;11.43;2.97;;;;;;;20.55;61.32;101302.22;4989676;28;20312;-72
2021/11/19 10:19:33;;;;;;;14.03;3.07;;;;;;;20.49;61.44;101338.00;4989666;28;20184;-74
2021/11/19 10:22:25;;;;;;;10.93;3.33;;;;;;;20.96;60.76;101311.25;4989738;28;20173;-73
2021/11/19 10:25:06;;;;;;;11.03;2.90;;;;;;;20.87;60.37;101299.38;4990931;28;20212;-72
2021/11/19 10:27:36;;;;;;;10.00;2.87;;;;;;;20.63;61.07;101293.41;4973534;28;20229;-73
2021/11/19 10:30:11;;;;;;;13.03;2.77;;;;;;;21.20;60.28;101313.63;4989822;28;20185;-73
2021/11/19 10:32:37;;;;;;;16.60;3.77;;;;;;;20.91;60.52;101303.53;4990251;28;20226;-72
2021/11/19 10:35:14;;;;;;;11.07;3.17;;;;;;;20.53;61.58;101309.63;4989811;28;20176;-73
2021/11/19 10:37:55;;;;;;;17.00;3.17;;;;;;;21.14;60.57;101311.44;4989612;28;20193;-75
2021/11/19 10:40:35;;;;;;;10.90;2.97;;;;;;;21.04;60.19;101303.28;4991632;28;20512;-72
2021/11/19 10:43:30;;;;;;;14.77;3.80;;;;;;;21.14;59.83;101317.75;4976747;28;20185;-73
2021/11/19 10:46:14;;;;;;;17.33;3.30;;;;;;;20.34;61.22;101316.72;4992743;28;20169;-73
2021/11/19 10:48:58;;;;;;;10.53;3.60;;;;;;;20.42;61.19;101303.38;4992686;28;20551;-74
2021/11/19 10:51:47;;;;;;;12.40;3.20;;;;;;;20.62;61.62;101312.50;4993010;28;20162;-73
2021/11/19 10:54:31;;;;;;;15.20;3.73;;;;;;;21.34;59.81;101293.41;4994344;28;20166;-74
2021/11/19 10:57:33;;;;;;;10.33;3.43;;;;;;;21.79;58.78;101300.03;4994033;28;20562;-73
2021/11/19 11:00:45;;;;;;;13.50;3.43;;;;;;;20.75;60.99;101292.31;4994068;28;20508;-73
2021/11/19 11:03:15;;;;;;;10.27;3.60;;;;;;;20.94;60.78;101298.81;4992390;28;20176;-74
2021/11/19 11:05:43;;;;;;;15.33;4.07;;;;;;;20.86;61.63;101313.06;4992625;28;20186;-73
2021/11/19 11:08:22;;;;;;;13.67;3.37;;;;;;;20.55;61.99;101293.22;4975994;28;20243;-72
2021/11/19 11:10:47;;;;;;;9.80;2.77;;;;;;;20.36;61.51;101291.19;4976188;28;20177;-73
2021/11/19 11:13:59;;;;;;;16.67;3.03;;;;;;;20.69;61.35;101306.41;4994396;28;20182;-72
2021/11/19 11:16:51;;;;;;;8.43;2.70;;;;;;;20.51;61.58;101300.75;4992141;28;20263;-74
2021/11/19 11:19:25;;;;;;;14.73;3.30;;;;;;;20.94;61.21;101310.53;4994669;28;20190;-73
2021/11/19 11:21:50;;;;;;;7.53;2.63;;;;;;;20.33;61.57;101301.44;4976123;28;20174;-73
2021/11/19 11:24:28;;;;;;;11.83;3.27;;;;;;;20.92;60.67;101299.81;4993427;28;20205;-72
2021/11/19 11:27:03;;;;;;;9.90;2.47;;;;;;;20.98;60.21;101302.97;4992382;28;20208;-74
2021/11/19 11:29:31;;;;;;;15.13;2.93;;;;;;;21.44;59.38;101300.56;4992120;28;20617;-73
2021/11/19 11:32:33;;;;;;;12.77;3.27;;;;;;;20.82;60.72;101298.94;4991884;28;20204;-73
2021/11/19 11:35:16;;;;;;;10.37;3.07;;;;;;;20.49;61.75;101291.91;4993461;28;20611;-72
2021/11/19 11:37:57;;;;;;;8.77;3.57;;;;;;;20.25;62.09;101294.84;4992125;28;20617;-74